Time;durP1;ratioP1;P1;durP2;ratioP2;P2;SDS_P1;SDS_P2;PMS_P1;PMS_P2;Temp;Humidity;BMP_temperature;BMP_pressure;BME280_temperature;BME280_humidity;BME280_pressure;Samples;Min_cycle;Max_cycle;Signal;HPM_P1;HPM_P2
2023/12/13 00:45:59;;;;;;;58.45;23.10;;;;;;;;;;6129417;23;20061;-87
2023/12/13 00:49:21;;;;;;;;;;;;;;;;;;;;;
2023/12/13 00:52:22;;;;;;;47.05;20.35;;;;;;;;;;6158308;23;20013;-87
2023/12/13 00:55:34;;;;;;;;;;;;;;;;;;;;;
2023/12/13 01:39:58;;;;;;;56.65;20.00;;;;;;;;;;6037679;23;20066;-87
2023/12/13 01:42:57;;;;;;;;;;;;;;;;;;;;;
2023/12/13 02:17:23;;;;;;;41.88;17.92;;;;;;;;;;6069478;23;20464;-87
2023/12/13 02:20:34;;;;;;;;;;;;;;;;;;;;;
2023/12/13 02:27:07;;;;;;;41.22;17.17;;;;;;;;;;6119329;23;20097;-87
2023/12/13 02:37:04;;;;;;;;;;;;;;;;;;;;;
2023/12/13 02:46:26;;;;;;;33.03;16.25;;;;;;;;;;6013481;23;20068;-87
2023/12/13 02:56:05;;;;;;;;;;;;;;;;;;;;;
2023/12/13 03:02:31;;;;;;;;;;;;;;;;;;;;;
2023/12/13 03:12:27;;;;;;;34.63;16.10;;;;;;;;;;5933834;23;20459;-87
2023/12/13 03:15:16;;;;;;;41.13;16.00;;;;;;;;;;6018776;23;20023;-86
2023/12/13 03:17:53;;;;;;;33.17;15.90;;;;;;;;;;6019039;23;20386;-86
2023/12/13 03:20:54;;;;;;;37.53;15.48;;;;;;;;;;6158545;23;20064;-86
2023/12/13 03:24:17;;;;;;;35.95;16.27;;;;;;;;;;6188620;23;20020;-86
2023/12/13 03:27:18;;;;;;;;;;;;;;;;;;;;;
2023/12/13 03:30:00;;;;;;;41.70;17.52;;;;;;;;;;6186451;23;20497;-87
2023/12/13 03:36:31;;;;;;;34.95;17.48;;;;;;;;;;6152841;23;20017;-87
2023/12/13 03:39:32;;;;;;;;;;;;;;;;;;;;;
2023/12/13 03:46:21;;;;;;;37.42;16.73;;;;;;;;;;6065174;23;20043;-87
2023/12/13 03:49:11;;;;;;;44.15;17.10;;;;;;;;;;6054758;23;20020;-87
2023/12/13 03:55:27;;;;;;;;;;;;;;;;;;;;;
2023/12/13 04:04:57;;;;;;;;;;;;;;;;;;;;;
2023/12/13 04:32:09;;;;;;;38.17;16.95;;;;;;;;;;6154418;23;20045;-87
2023/12/13 04:38:34;;;;;;;;;;;;;;;;;;;;;
2023/12/13 04:55:53;;;;;;;;;;;;;;;;;;;;;
2023/12/13 05:26:34;;;;;;;36.67;17.13;;;;;;;;;;6011570;23;20043;-86
2023/12/13 06:15:05;;;;;;;37.97;18.65;;;;;;;;;;6094587;23;20121;-87
2023/12/13 06:44:34;;;;;;;;;;;;;;;;;;;;;
2023/12/13 07:31:46;;;;;;;49.45;22.88;;;;;;;;;;5988828;23;20024;-86
2023/12/13 07:34:15;;;;;;;46.55;22.50;;;;;;;;;;6031188;23;20052;-86
2023/12/13 07:36:54;;;;;;;48.28;22.92;;;;;;;;;;6094073;23;20453;-86
2023/12/13 07:42:56;;;;;;;47.38;22.48;;;;;;;;;;6217003;23;20067;-86
2023/12/13 07:45:24;;;;;;;44.97;22.33;;;;;;;;;;6166212;23;20096;-86
2023/12/13 07:47:58;;;;;;;49.75;23.73;;;;;;;;;;6165218;23;20025;-86
2023/12/13 07:50:25;;;;;;;46.92;21.67;;;;;;;;;;6165925;23;20059;-86
2023/12/13 07:52:57;;;;;;;50.95;21.92;;;;;;;;;;6167232;23;20017;-87
2023/12/13 07:55:26;;;;;;;49.00;21.85;;;;;;;;;;6165691;23;20107;-86
2023/12/13 07:57:58;;;;;;;46.05;21.75;;;;;;;;;;6165957;23;20052;-86
2023/12/13 08:00:27;;;;;;;50.38;21.65;;;;;;;;;;6158631;23;20019;-87
2023/12/13 08:03:11;;;;;;;48.72;21.85;;;;;;;;;;6165243;23;20377;-87
2023/12/13 08:05:40;;;;;;;51.47;21.50;;;;;;;;;;6165504;23;20048;-86
2023/12/13 08:08:11;;;;;;;53.40;21.25;;;;;;;;;;6165663;23;20100;-86
2023/12/13 08:10:50;;;;;;;55.25;22.45;;;;;;;;;;6166468;23;20017;-86
2023/12/13 08:13:21;;;;;;;44.80;20.65;;;;;;;;;;6165626;23;20017;-87
2023/12/13 08:15:59;;;;;;;51.30;22.70;;;;;;;;;;6166699;23;20449;-87
2023/12/13 08:22:22;;;;;;;49.95;21.60;;;;;;;;;;6217056;23;20012;-88
2023/12/13 08:28:27;;;;;;;56.28;21.20;;;;;;;;;;6217391;23;20063;-87
2023/12/13 08:31:07;;;;;;;51.95;21.92;;;;;;;;;;6166855;23;20066;-84
2023/12/13 08:33:33;;;;;;;53.22;21.23;;;;;;;;;;6164924;23;20021;-87
2023/12/13 08:36:04;;;;;;;55.40;21.10;;;;;;;;;;6165693;23;20448;-85
2023/12/13 08:38:30;;;;;;;54.15;22.55;;;;;;;;;;6165226;23;20021;-85
2023/12/13 08:40:57;;;;;;;51.95;22.80;;;;;;;;;;6165099;23;20452;-86
2023/12/13 08:43:25;;;;;;;45.45;20.95;;;;;;;;;;6165235;23;20099;-86
2023/12/13 08:45:52;;;;;;;57.00;22.05;;;;;;;;;;6165058;23;20039;-85
2023/12/13 08:48:20;;;;;;;59.17;22.70;;;;;;;;;;6165591;23;20028;-85
2023/12/13 08:51:13;;;;;;;58.75;21.85;;;;;;;;;;6165295;23;20017;-86
2023/12/13 08:53:54;;;;;;;;;;;;;;;;;;;;;
2023/12/13 08:57:12;;;;;;;45.63;21.30;;;;;;;;;;6124609;23;20073;-87
2023/12/13 08:59:40;;;;;;;53.13;21.85;;;;;;;;;;6076189;23;20018;-86
2023/12/13 09:02:19;;;;;;;51.00;21.80;;;;;;;;;;6075805;23;20020;-89
2023/12/13 09:04:48;;;;;;;50.72;21.40;;;;;;;;;;6085848;23;20046;-85
2023/12/13 09:07:23;;;;;;;60.55;22.90;;;;;;;;;;6165037;23;20116;-86
2023/12/13 09:09:52;;;;;;;56.17;21.83;;;;;;;;;;6164392;23;20021;-85
2023/12/13 09:12:19;;;;;;;60.45;22.90;;;;;;;;;;6164396;23;20079;-85
2023/12/13 09:14:47;;;;;;;57.78;21.88;;;;;;;;;;6164432;23;20338;-85
2023/12/13 09:17:14;;;;;;;47.95;21.80;;;;;;;;;;6163905;23;20496;-86
2023/12/13 09:19:46;;;;;;;57.72;22.50;;;;;;;;;;6165392;23;20021;-85
2023/12/13 09:22:17;;;;;;;54.60;21.70;;;;;;;;;;6164551;23;20092;-85
2023/12/13 09:24:52;;;;;;;57.08;21.60;;;;;;;;;;6164554;23;20128;-85
2023/12/13 09:27:24;;;;;;;54.63;22.20;;;;;;;;;;6164954;23;20019;-85
2023/12/13 09:29:53;;;;;;;52.25;21.27;;;;;;;;;;6164333;23;20052;-85
2023/12/13 09:32:33;;;;;;;55.47;22.90;;;;;;;;;;6166768;23;20481;-85
2023/12/13 09:34:59;;;;;;;55.50;22.20;;;;;;;;;;6164727;23;20020;-86
2023/12/13 09:37:25;;;;;;;62.30;23.08;;;;;;;;;;6164833;23;20055;-86
2023/12/13 09:39:52;;;;;;;52.83;21.55;;;;;;;;;;6164520;23;20016;-86
2023/12/13 09:42:18;;;;;;;55.63;21.92;;;;;;;;;;6165281;23;20422;-86
2023/12/13 09:48:47;;;;;;;;;;;;;;;;;;;;;
2023/12/13 09:58:51;;;;;;;;;;;;;;;;;;;;;
2023/12/13 10:04:37;;;;;;;48.92;21.67;;;;;;;;;;6152765;23;20056;-86
2023/12/13 10:14:05;;;;;;;;;;;;;;;;;;;;;
2023/12/13 10:20:19;;;;;;;49.33;19.88;;;;;;;;;;6070201;23;20053;-87
2023/12/13 10:22:54;;;;;;;48.80;21.13;;;;;;;;;;6115717;23;20018;-85
2023/12/13 10:25:26;;;;;;;49.53;20.33;;;;;;;;;;6123991;23;20348;-87
2023/12/13 10:27:56;;;;;;;47.75;20.83;;;;;;;;;;6099050;23;20078;-86
2023/12/13 10:30:22;;;;;;;50.45;21.85;;;;;;;;;;6099333;23;20028;-87
2023/12/13 10:33:00;;;;;;;50.35;20.60;;;;;;;;;;6098998;23;20025;-86
2023/12/13 10:35:31;;;;;;;55.95;21.40;;;;;;;;;;6155960;23;20013;-86
2023/12/13 10:38:04;;;;;;;52.72;20.70;;;;;;;;;;6165593;23;20072;-86
2023/12/13 10:40:33;;;;;;;56.75;22.10;;;;;;;;;;6164136;23;20023;-86
2023/12/13 10:43:00;;;;;;;57.60;21.55;;;;;;;;;;6164010;23;20069;-85
2023/12/13 10:45:26;;;;;;;52.45;21.88;;;;;;;;;;6165288;23;20012;-86
2023/12/13 10:47:57;;;;;;;57.20;21.35;;;;;;;;;;6189418;23;20021;-86
2023/12/13 10:50:23;;;;;;;55.53;20.50;;;;;;;;;;6164561;23;20021;-87
2023/12/13 10:52:51;;;;;;;54.70;20.25;;;;;;;;;;6165523;23;20080;-87
2023/12/13 10:58:39;;;;;;;50.28;19.27;;;;;;;;;;6215283;23;20432;-87
2023/12/13 11:01:07;;;;;;;50.08;18.95;;;;;;;;;;6163440;23;20020;-87
2023/12/13 11:03:48;;;;;;;48.88;19.58;;;;;;;;;;6163970;23;20052;-87
2023/12/13 11:06:17;;;;;;;55.70;19.75;;;;;;;;;;6164221;23;20044;-86
2023/12/13 11:08:44;;;;;;;48.70;19.20;;;;;;;;;;6164532;23;20017;-86
2023/12/13 11:11:13;;;;;;;50.13;21.17;;;;;;;;;;6164210;23;20016;-86
2023/12/13 11:13:51;;;;;;;52.67;20.42;;;;;;;;;;6164212;23;20052;-86
2023/12/13 11:16:26;;;;;;;50.67;20.17;;;;;;;;;;6164325;23;20091;-86
2023/12/13 11:18:53;;;;;;;51.88;20.77;;;;;;;;;;6166626;23;20436;-86
2023/12/13 11:21:26;;;;;;;55.03;21.10;;;;;;;;;;6164500;23;20083;-86
2023/12/13 11:24:00;;;;;;;59.58;21.98;;;;;;;;;;6215446;23;20048;-86
2023/12/13 11:26:36;;;;;;;56.78;21.60;;;;;;;;;;6164932;23;20019;-86
2023/12/13 11:29:12;;;;;;;61.38;21.33;;;;;;;;;;6165020;23;20021;-86
2023/12/13 11:31:47;;;;;;;54.25;20.45;;;;;;;;;;6164145;23;20017;-86
2023/12/13 11:34:14;;;;;;;61.70;20.63;;;;;;;;;;6164069;23;20020;-87
2023/12/13 11:36:49;;;;;;;54.60;20.23;;;;;;;;;;6164779;23;20039;-88
2023/12/13 11:39:16;;;;;;;60.08;21.73;;;;;;;;;;6163027;23;20017;-86
2023/12/13 11:41:44;;;;;;;53.85;21.35;;;;;;;;;;6164804;23;20453;-87
2023/12/13 11:44:42;;;;;;;;;;;;;;;;;;;;;
2023/12/13 12:01:01;;;;;;;43.17;20.80;;;;;;;;;;6066195;23;20407;-88
2023/12/13 13:38:12;;;;;;;15.57;7.38;;;;;;;;;;6246415;23;20011;-87
2023/12/13 13:51:38;;;;;;;8.70;5.32;;;;;;;;;;6124014;23;20009;-86
2023/12/13 14:32:17;;;;;;;;;;;;;;;;;;;;;
2023/12/13 14:42:16;;;;;;;10.05;7.07;;;;;;;;;;6023690;23;20057;-85
2023/12/13 14:48:39;;;;;;;8.23;5.75;;;;;;;;;;6066089;23;20010;-87
2023/12/13 14:51:42;;;;;;;9.68;6.43;;;;;;;;;;6039179;23;20018;-88
2023/12/13 14:54:32;;;;;;;8.38;6.03;;;;;;;;;;6012262;23;20102;-87
2023/12/13 14:56:59;;;;;;;9.35;6.15;;;;;;;;;;5989041;23;20015;-87
2023/12/13 14:59:31;;;;;;;8.98;5.93;;;;;;;;;;6064773;23;20516;-88
2023/12/13 15:01:57;;;;;;;8.13;5.55;;;;;;;;;;6152287;23;20044;-86
2023/12/13 15:04:23;;;;;;;10.65;5.82;;;;;;;;;;6102852;23;20510;-86
2023/12/13 15:06:52;;;;;;;7.60;5.47;;;;;;;;;;6190978;23;20035;-87
2023/12/13 15:09:18;;;;;;;8.10;5.88;;;;;;;;;;6193831;23;20056;-86
2023/12/13 15:11:45;;;;;;;9.18;6.00;;;;;;;;;;6219114;23;20016;-87
2023/12/13 15:14:11;;;;;;;10.25;6.03;;;;;;;;;;6193961;23;20023;-87
2023/12/13 15:16:37;;;;;;;9.50;6.55;;;;;;;;;;6194329;23;20486;-87
2023/12/13 15:19:07;;;;;;;9.27;5.82;;;;;;;;;;6193956;23;20020;-85
2023/12/13 15:21:33;;;;;;;9.05;6.28;;;;;;;;;;6193681;23;20023;-86
2023/12/13 15:23:59;;;;;;;7.90;6.03;;;;;;;;;;6193149;23;20044;-87
2023/12/13 15:26:28;;;;;;;10.98;6.32;;;;;;;;;;6193717;23;20480;-87
2023/12/13 15:28:54;;;;;;;9.05;6.00;;;;;;;;;;6193091;23;20028;-87
2023/12/13 15:31:20;;;;;;;10.70;5.95;;;;;;;;;;6193561;23;20078;-87
2023/12/13 15:33:46;;;;;;;9.52;5.72;;;;;;;;;;6193152;23;20075;-87
2023/12/13 15:36:14;;;;;;;9.70;5.90;;;;;;;;;;6193340;23;20082;-87
2023/12/13 15:38:40;;;;;;;9.13;5.68;;;;;;;;;;6193113;23;20016;-87
2023/12/13 15:41:07;;;;;;;7.07;5.55;;;;;;;;;;6193544;23;20052;-87
2023/12/13 15:43:33;;;;;;;7.30;5.20;;;;;;;;;;6193356;23;20013;-87
2023/12/13 15:45:59;;;;;;;8.70;5.18;;;;;;;;;;6193114;23;20392;-87
2023/12/13 15:48:25;;;;;;;8.82;5.05;;;;;;;;;;6189951;23;20013;-87
2023/12/13 15:50:54;;;;;;;8.32;4.93;;;;;;;;;;6194619;23;20026;-86
2023/12/13 15:53:21;;;;;;;7.50;4.38;;;;;;;;;;6195362;23;20020;-87
2023/12/13 15:55:47;;;;;;;5.78;4.35;;;;;;;;;;6195306;23;20016;-87
2023/12/13 15:58:13;;;;;;;7.03;4.60;;;;;;;;;;6195318;23;20016;-87
2023/12/13 16:00:39;;;;;;;6.10;4.53;;;;;;;;;;6195610;23;20487;-86
2023/12/13 16:03:05;;;;;;;7.25;4.75;;;;;;;;;;6195311;23;20087;-86
2023/12/13 16:05:31;;;;;;;7.57;5.13;;;;;;;;;;6195577;23;20345;-87
2023/12/13 16:07:57;;;;;;;6.72;4.60;;;;;;;;;;6195775;23;20016;-87
2023/12/13 16:10:24;;;;;;;5.45;4.03;;;;;;;;;;6195447;23;20042;-87
2023/12/13 16:12:50;;;;;;;6.80;4.50;;;;;;;;;;6195467;23;20555;-87
2023/12/13 16:15:16;;;;;;;5.85;4.40;;;;;;;;;;6195588;23;20318;-86
2023/12/13 16:17:43;;;;;;;5.75;4.30;;;;;;;;;;6195892;23;20099;-87
2023/12/13 16:20:10;;;;;;;7.55;4.80;;;;;;;;;;6195398;23;20050;-87
2023/12/13 16:22:39;;;;;;;5.85;4.57;;;;;;;;;;6195172;23;20016;-87
2023/12/13 16:25:05;;;;;;;6.57;5.13;;;;;;;;;;6195215;23;20572;-86
2023/12/13 16:27:32;;;;;;;7.47;5.55;;;;;;;;;;6195466;23;20023;-87
2023/12/13 16:29:59;;;;;;;7.35;5.38;;;;;;;;;;6195172;23;20151;-86
2023/12/13 16:32:25;;;;;;;8.80;5.68;;;;;;;;;;6195240;23;20092;-87
2023/12/13 16:34:51;;;;;;;7.50;5.60;;;;;;;;;;6194629;23;20020;-87
2023/12/13 16:37:22;;;;;;;9.05;5.97;;;;;;;;;;6195104;23;20024;-87
2023/12/13 16:40:20;;;;;;;9.85;5.90;;;;;;;;;;6195569;23;20511;-87
2023/12/13 16:42:46;;;;;;;9.57;6.32;;;;;;;;;;6195131;23;20070;-87
2023/12/13 16:48:28;;;;;;;8.15;5.88;;;;;;;;;;6139260;23;20405;-86
2023/12/13 16:50:55;;;;;;;7.05;5.07;;;;;;;;;;6194265;23;20046;-86
2023/12/13 16:53:38;;;;;;;7.40;5.88;;;;;;;;;;6195293;23;20019;-87
2023/12/13 16:56:08;;;;;;;10.50;6.40;;;;;;;;;;6194586;23;20023;-87
2023/12/13 16:58:34;;;;;;;10.82;6.28;;;;;;;;;;6193020;23;20019;-87
2023/12/13 17:01:18;;;;;;;8.95;5.90;;;;;;;;;;6194350;23;20337;-87
2023/12/13 17:03:48;;;;;;;9.38;5.65;;;;;;;;;;6193171;23;20090;-86
2023/12/13 17:06:15;;;;;;;8.18;6.40;;;;;;;;;;6194600;23;20012;-87
2023/12/13 17:08:41;;;;;;;8.68;5.90;;;;;;;;;;6192860;23;20020;-87
2023/12/13 17:11:28;;;;;;;8.98;5.68;;;;;;;;;;6195224;23;20020;-87
2023/12/13 17:14:07;;;;;;;8.20;6.10;;;;;;;;;;6194355;23;20127;-87
2023/12/13 17:16:33;;;;;;;6.93;5.10;;;;;;;;;;6194016;23;20016;-87
2023/12/13 17:18:59;;;;;;;8.43;5.47;;;;;;;;;;6194456;23;20524;-87
2023/12/13 17:21:36;;;;;;;;;;;;;;;;;;;;;
2023/12/13 17:24:05;;;;;;;8.25;4.85;;;;;;;;;;6219191;23;20016;-86
2023/12/13 17:26:41;;;;;;;8.40;3.90;;;;;;;;;;6194527;23;20331;-88
2023/12/13 17:33:02;;;;;;;5.07;3.80;;;;;;;;;;6208933;23;20024;-87
2023/12/13 17:35:49;;;;;;;4.45;3.60;;;;;;;;;;6180350;23;20539;-87
2023/12/13 17:38:52;;;;;;;7.82;3.97;;;;;;;;;;6194659;23;20019;-87
2023/12/13 17:44:42;;;;;;;5.78;3.75;;;;;;;;;;6211248;23;20016;-86
2023/12/13 17:47:08;;;;;;;5.53;3.08;;;;;;;;;;6194438;23;20016;-87
2023/12/13 17:52:49;;;;;;;3.67;2.60;;;;;;;;;;6204063;23;20054;-86
2023/12/13 17:55:16;;;;;;;4.60;2.65;;;;;;;;;;6194409;23;20016;-86
2023/12/13 17:57:54;;;;;;;5.50;3.00;;;;;;;;;;6193425;23;20317;-87
2023/12/13 18:00:20;;;;;;;4.38;2.83;;;;;;;;;;6194321;23;20336;-86
2023/12/13 18:02:47;;;;;;;7.03;3.22;;;;;;;;;;6194150;23;20016;-85
2023/12/13 18:05:13;;;;;;;5.65;3.22;;;;;;;;;;6218820;23;20031;-85
2023/12/13 18:07:39;;;;;;;4.78;3.00;;;;;;;;;;6192950;23;20119;-85
2023/12/13 18:10:05;;;;;;;4.50;3.00;;;;;;;;;;6193604;23;20503;-85
2023/12/13 18:12:31;;;;;;;5.28;3.00;;;;;;;;;;6192714;23;20024;-85
2023/12/13 18:15:01;;;;;;;4.65;3.30;;;;;;;;;;6193375;23;20051;-86
2023/12/13 18:17:38;;;;;;;7.07;3.10;;;;;;;;;;6193135;23;20016;-86
2023/12/13 18:20:04;;;;;;;6.80;3.40;;;;;;;;;;6194401;23;20020;-86
2023/12/13 18:22:33;;;;;;;7.32;3.53;;;;;;;;;;6193120;23;20020;-87
2023/12/13 18:25:09;;;;;;;4.95;3.03;;;;;;;;;;6193503;23;20016;-86
2023/12/13 18:27:44;;;;;;;6.45;3.42;;;;;;;;;;6183812;23;20104;-86
2023/12/13 18:30:10;;;;;;;5.53;2.80;;;;;;;;;;6193641;23;20019;-85
2023/12/13 18:32:48;;;;;;;5.95;3.45;;;;;;;;;;6193888;23;20020;-87
2023/12/13 18:35:17;;;;;;;9.15;3.25;;;;;;;;;;6194322;23;20046;-86
2023/12/13 18:37:48;;;;;;;6.70;3.10;;;;;;;;;;6193884;23;20020;-87
2023/12/13 18:40:17;;;;;;;7.72;2.92;;;;;;;;;;6193918;23;20091;-86
2023/12/13 18:46:55;;;;;;;;;;;;;;;;;;;;;
2023/12/13 18:50:00;;;;;;;7.38;3.40;;;;;;;;;;6211738;23;20012;-87
2023/12/13 19:10:09;;;;;;;;;;;;;;;;;;;;;
2023/12/13 19:16:35;;;;;;;11.00;4.95;;;;;;;;;;5789171;24;20023;-86
2023/12/13 19:47:53;;;;;;;;;;;;;;;;;;;;;
2023/12/13 20:16:17;;;;;;;14.73;6.40;;;;;;;;;;5844095;24;20095;-87
2023/12/13 20:18:27;;;;;;;12.82;6.15;;;;;;;;;;5812162;24;20077;-86
2023/12/13 20:24:25;;;;;;;;;;;;;;;;;;;;;
2023/12/13 21:06:36;;;;;;;13.00;6.75;;;;;;;;;;6121243;23;20069;-86
2023/12/13 21:14:05;;;;;;;;;;;;;;;;;;;;;
2023/12/13 21:30:16;;;;;;;13.00;6.10;;;;;;;;;;6033655;23;20025;-85
2023/12/13 21:32:45;;;;;;;14.73;7.22;;;;;;;;;;6046239;23;20022;-85
2023/12/13 21:35:11;;;;;;;12.05;6.95;;;;;;;;;;6184891;23;20013;-85
2023/12/13 21:37:37;;;;;;;13.25;6.88;;;;;;;;;;6194324;23;20024;-85
2023/12/13 21:40:04;;;;;;;14.18;7.35;;;;;;;;;;6219450;23;20081;-85
2023/12/13 21:42:32;;;;;;;13.98;6.30;;;;;;;;;;6194048;23;20107;-85
2023/12/13 21:44:58;;;;;;;13.15;6.85;;;;;;;;;;6194093;23;20016;-85
2023/12/13 21:47:25;;;;;;;11.13;6.20;;;;;;;;;;6194068;23;20016;-85
2023/12/13 21:49:54;;;;;;;14.45;6.57;;;;;;;;;;6194146;23;20020;-84
2023/12/13 21:52:20;;;;;;;12.82;6.75;;;;;;;;;;6194297;23;20091;-85
2023/12/13 21:54:46;;;;;;;13.25;6.13;;;;;;;;;;6193897;23;20091;-84
2023/12/13 21:57:13;;;;;;;12.95;5.70;;;;;;;;;;6194372;23;20091;-85
2023/12/13 21:59:39;;;;;;;14.57;5.95;;;;;;;;;;6219268;23;20016;-84
2023/12/13 22:02:08;;;;;;;11.57;5.70;;;;;;;;;;6194170;23;20023;-84
2023/12/13 22:04:34;;;;;;;12.40;5.82;;;;;;;;;;6193773;23;20074;-85
2023/12/13 22:07:00;;;;;;;14.15;5.63;;;;;;;;;;6193415;23;20020;-84
2023/12/13 22:09:26;;;;;;;13.50;6.68;;;;;;;;;;6193775;23;20012;-85
2023/12/13 22:11:52;;;;;;;10.90;6.07;;;;;;;;;;6194207;23;20020;-85
2023/12/13 22:14:18;;;;;;;21.05;7.80;;;;;;;;;;6193915;23;20016;-85
2023/12/13 22:16:44;;;;;;;12.20;5.88;;;;;;;;;;6193991;23;20090;-85
2023/12/13 22:19:25;;;;;;;11.02;6.00;;;;;;;;;;6193560;23;20023;-84
2023/12/13 22:21:51;;;;;;;12.65;6.10;;;;;;;;;;6193876;23;20012;-84
2023/12/13 22:24:20;;;;;;;10.80;5.90;;;;;;;;;;6193336;23;20019;-85
2023/12/13 22:26:46;;;;;;;13.50;5.95;;;;;;;;;;6193859;23;20091;-85
2023/12/13 22:29:12;;;;;;;12.07;5.70;;;;;;;;;;6193710;23;20445;-84
2023/12/13 22:31:38;;;;;;;11.38;5.63;;;;;;;;;;6193307;23;20020;-85
2023/12/13 22:34:04;;;;;;;12.02;5.88;;;;;;;;;;6193381;23;20023;-85
2023/12/13 22:36:31;;;;;;;14.07;5.53;;;;;;;;;;6193660;23;20523;-85
2023/12/13 22:38:57;;;;;;;9.18;4.97;;;;;;;;;;6189142;23;20020;-84
2023/12/13 22:41:23;;;;;;;13.13;5.82;;;;;;;;;;6218538;23;20027;-84
2023/12/13 22:43:49;;;;;;;16.65;5.40;;;;;;;;;;6193605;23;20016;-84
2023/12/13 22:46:15;;;;;;;11.60;5.15;;;;;;;;;;6193602;23;20016;-85
2023/12/13 22:48:41;;;;;;;12.77;5.60;;;;;;;;;;6193753;23;20012;-84
2023/12/13 22:51:07;;;;;;;9.90;4.53;;;;;;;;;;6193908;23;20012;-85
2023/12/13 22:53:33;;;;;;;8.65;5.03;;;;;;;;;;6193528;23;20094;-84
2023/12/13 22:56:01;;;;;;;11.32;4.90;;;;;;;;;;6193895;23;20065;-84
2023/12/13 22:58:27;;;;;;;9.77;4.85;;;;;;;;;;6193504;23;20348;-84
2023/12/13 23:00:53;;;;;;;13.95;5.05;;;;;;;;;;6193199;23;20340;-85
2023/12/13 23:03:19;;;;;;;9.50;5.18;;;;;;;;;;6193938;23;20016;-84
2023/12/13 23:05:45;;;;;;;10.35;5.25;;;;;;;;;;6218218;23;20290;-85
2023/12/13 23:08:12;;;;;;;9.60;4.78;;;;;;;;;;6194000;23;20321;-84
2023/12/13 23:10:38;;;;;;;9.32;5.13;;;;;;;;;;6193577;23;20013;-84
2023/12/13 23:13:04;;;;;;;13.50;5.32;;;;;;;;;;6191787;23;20353;-85
2023/12/13 23:15:30;;;;;;;9.80;5.13;;;;;;;;;;6216693;23;20016;-85
2023/12/13 23:17:56;;;;;;;8.60;4.60;;;;;;;;;;6193535;23;20023;-84
2023/12/13 23:20:23;;;;;;;8.90;4.53;;;;;;;;;;6193334;23;20100;-84
2023/12/13 23:22:49;;;;;;;14.05;5.03;;;;;;;;;;6193681;23;20042;-84
2023/12/13 23:25:17;;;;;;;9.95;5.25;;;;;;;;;;6193390;23;20016;-85
2023/12/13 23:27:43;;;;;;;8.23;4.90;;;;;;;;;;6193281;23;20012;-84
2023/12/13 23:30:10;;;;;;;11.15;4.90;;;;;;;;;;6193322;23;20020;-84
2023/12/13 23:32:39;;;;;;;9.60;4.75;;;;;;;;;;6193458;23;20386;-84
2023/12/13 23:35:05;;;;;;;8.00;4.95;;;;;;;;;;6193195;23;20026;-84
2023/12/13 23:37:31;;;;;;;11.23;5.03;;;;;;;;;;6193265;23;20016;-84
2023/12/13 23:39:57;;;;;;;8.82;5.25;;;;;;;;;;6193440;23;20020;-84
2023/12/13 23:42:26;;;;;;;11.02;5.00;;;;;;;;;;6193039;23;20461;-85
2023/12/13 23:44:52;;;;;;;9.25;4.78;;;;;;;;;;6193174;23;20012;-84
2023/12/13 23:47:19;;;;;;;9.07;4.63;;;;;;;;;;6193756;23;20020;-84
2023/12/13 23:49:45;;;;;;;9.50;4.60;;;;;;;;;;6193811;23;20070;-84
2023/12/13 23:52:11;;;;;;;12.07;4.60;;;;;;;;;;6193202;23;20020;-84
2023/12/13 23:54:37;;;;;;;8.45;4.15;;;;;;;;;;6193570;23;20060;-84
2023/12/13 23:57:03;;;;;;;7.93;4.47;;;;;;;;;;6193652;23;20123;-84
2023/12/13 23:59:29;;;;;;;7.18;3.80;;;;;;;;;;6192964;23;20013;-84
